Lakota, North Dakota
Current Conditions -  °F | °C
As of 2:35 PM on Tuesday 25 Nov 2014 (Local Time) from KDVL Reporting Station
Overcast Overcast  
Wind Chill:   Ceiling: 1100
Heat Index: 21°   Visibility: 10mi
Dew Point: 10°   Wind: 13mph
Humidity: 63%   Direction: 90°E
Pressure: 29.82"   Gusts: NA
Location:  48.04°N, 98.34°W
Report Text: KDVL 252035Z AUTO 09011KT 10SM OVC011 M06/M12 A2982 RMK AO1
Loading
Personal Weather Stations






























Interactive Weather Map New forecast layout! Learn more

10-Day Weather Forecast

Advertisements
Track Severe Weather on mobile